Time;durP1;ratioP1;P1;durP2;ratioP2;P2;SDS_P1;SDS_P2;PMS_P1;PMS_P2;Temp;Humidity;BMP_temperature;BMP_pressure;BME280_temperature;BME280_humidity;BME280_pressure;Samples;Min_cycle;Max_cycle;Signal;HPM_P1;HPM_P2
2022/11/24 00:01:12;;;;;;;83.60;28.33;;;;;;;-2.84;100.00;99261.78;4203643;28;21205;-70
2022/11/24 00:03:38;;;;;;;77.20;25.93;;;;;;;-2.80;100.00;99261.53;4205499;28;20245;-71
2022/11/24 00:06:07;;;;;;;85.97;24.30;;;;;;;-2.83;100.00;99268.69;4207027;28;20238;-69
2022/11/24 00:08:35;;;;;;;79.80;26.03;;;;;;;-2.70;100.00;99277.44;4202275;28;20241;-69
2022/11/24 00:11:07;;;;;;;77.73;26.53;;;;;;;-2.60;100.00;99276.00;4204552;28;21714;-69
2022/11/24 00:13:34;;;;;;;79.87;25.80;;;;;;;-2.64;100.00;99282.31;4207591;28;20231;-68
2022/11/24 00:16:21;;;;;;;83.17;26.33;;;;;;;-2.71;100.00;99280.16;4193805;28;20238;-69
2022/11/24 00:18:49;;;;;;;75.63;24.90;;;;;;;-2.69;100.00;99275.66;4211310;28;21676;-69
2022/11/24 00:21:17;;;;;;;69.30;23.20;;;;;;;-2.79;100.00;99283.19;4198707;28;20620;-68
2022/11/24 00:23:44;;;;;;;73.30;24.37;;;;;;;-2.72;100.00;99274.09;4211372;28;20653;-70
2022/11/24 00:26:19;;;;;;;79.77;24.30;;;;;;;-2.73;100.00;99279.41;4210033;28;21033;-74
2022/11/24 00:28:47;;;;;;;78.40;24.60;;;;;;;-2.71;100.00;99275.78;4226722;28;20243;-71
2022/11/24 00:31:20;;;;;;;65.30;22.23;;;;;;;-2.62;100.00;99270.03;4201777;28;20235;-70
2022/11/24 00:33:48;;;;;;;77.07;25.53;;;;;;;-2.73;100.00;99261.19;4206846;28;20252;-68
2022/11/24 00:36:16;;;;;;;69.30;22.87;;;;;;;-2.71;100.00;99260.16;4207804;28;20709;-72
2022/11/24 00:38:44;;;;;;;71.53;22.77;;;;;;;-2.66;100.00;99268.53;4206940;28;20732;-68
2022/11/24 00:41:10;;;;;;;67.27;23.57;;;;;;;-2.73;100.00;99267.22;4201305;28;20504;-70
2022/11/24 00:43:37;;;;;;;71.73;23.17;;;;;;;-2.64;100.00;99255.44;4207540;28;21707;-71
2022/11/24 00:46:04;;;;;;;76.47;24.40;;;;;;;-2.63;100.00;99260.53;4209346;28;20229;-69
2022/11/24 00:48:31;;;;;;;71.17;24.33;;;;;;;-2.63;100.00;99263.13;4203482;28;20254;-71
2022/11/24 00:50:59;;;;;;;69.80;22.97;;;;;;;-2.68;100.00;99269.53;4201244;28;20239;-71
2022/11/24 00:53:27;;;;;;;73.40;23.93;;;;;;;-2.67;100.00;99277.28;4200041;28;20226;-70
2022/11/24 00:55:54;;;;;;;86.87;27.23;;;;;;;-2.73;100.00;99272.41;4203143;28;20227;-69
2022/11/24 00:58:22;;;;;;;91.53;27.17;;;;;;;-2.69;100.00;99271.31;4204570;28;20233;-70
2022/11/24 01:00:49;;;;;;;81.30;26.20;;;;;;;-2.63;100.00;99273.53;4203320;28;20235;-68
2022/11/24 01:03:17;;;;;;;87.67;29.07;;;;;;;-2.68;100.00;99253.94;4207139;28;20239;-70
2022/11/24 01:05:44;;;;;;;87.37;27.27;;;;;;;-2.66;100.00;99267.69;4203757;28;20234;-68
2022/11/24 01:08:11;;;;;;;86.80;27.60;;;;;;;-2.72;100.00;99255.84;4210750;28;20290;-71
2022/11/24 01:10:38;;;;;;;81.97;26.77;;;;;;;-2.62;100.00;99258.78;4204504;28;21678;-69
2022/11/24 01:13:05;;;;;;;94.63;28.17;;;;;;;-2.61;100.00;99266.47;4200195;28;20276;-69
2022/11/24 01:15:36;;;;;;;80.30;25.83;;;;;;;-2.67;100.00;99260.78;4211640;28;20613;-69
2022/11/24 01:18:04;;;;;;;73.17;24.27;;;;;;;-2.61;100.00;99263.88;4218887;28;20313;-70
2022/11/24 01:20:31;;;;;;;70.83;24.37;;;;;;;-2.66;100.00;99262.50;4204521;28;20228;-69
2022/11/24 01:22:57;;;;;;;75.47;23.87;;;;;;;-2.66;100.00;99265.94;4201041;28;20235;-70
2022/11/24 01:25:24;;;;;;;70.53;23.33;;;;;;;-2.62;100.00;99264.81;4208960;28;20240;-69
2022/11/24 01:27:51;;;;;;;66.93;24.23;;;;;;;-2.61;100.00;99261.28;4200240;28;20233;-70
2022/11/24 01:30:17;;;;;;;65.57;22.23;;;;;;;-2.60;100.00;99265.56;4203109;28;22086;-70
2022/11/24 01:32:44;;;;;;;66.13;22.50;;;;;;;-2.69;100.00;99262.66;4195766;28;22487;-70
2022/11/24 01:35:11;;;;;;;64.17;22.40;;;;;;;-2.59;100.00;99269.84;4209707;28;20229;-71
2022/11/24 01:37:38;;;;;;;68.87;22.63;;;;;;;-2.55;100.00;99266.13;4208082;28;21338;-69
2022/11/24 01:40:05;;;;;;;66.43;22.43;;;;;;;-2.58;100.00;99263.69;4196551;28;20302;-69
2022/11/24 01:43:01;;;;;;;62.60;22.67;;;;;;;-2.64;100.00;99260.63;4197705;28;20250;-69
2022/11/24 01:45:39;;;;;;;65.23;21.97;;;;;;;-2.60;100.00;99262.09;4205183;28;23255;-69
2022/11/24 01:48:24;;;;;;;67.37;22.83;;;;;;;-2.60;100.00;99260.38;4204325;28;22215;-71
2022/11/24 01:51:05;;;;;;;65.33;20.53;;;;;;;-2.61;100.00;99261.28;4207144;28;20487;-68
2022/11/24 01:53:32;;;;;;;62.30;21.20;;;;;;;-2.60;100.00;99255.16;4199701;28;20235;-70
2022/11/24 01:55:59;;;;;;;62.77;21.23;;;;;;;-2.59;100.00;99254.22;4199879;28;20243;-71
2022/11/24 01:58:28;;;;;;;68.73;22.97;;;;;;;-2.52;100.00;99254.69;4197348;28;20248;-68
2022/11/24 02:00:55;;;;;;;63.63;21.57;;;;;;;-2.59;100.00;99264.63;4198403;28;20300;-65
2022/11/24 02:03:27;;;;;;;59.30;19.80;;;;;;;-2.51;100.00;99253.75;4199321;28;20343;-68
2022/11/24 02:06:04;;;;;;;63.17;21.30;;;;;;;-2.60;100.00;99257.75;4195986;28;20648;-70
2022/11/24 02:08:48;;;;;;;64.70;21.73;;;;;;;-2.63;100.00;99260.53;4178792;28;20939;-69
2022/11/24 02:11:14;;;;;;;67.73;21.13;;;;;;;-2.51;100.00;99258.97;4201731;28;20237;-70
2022/11/24 02:13:42;;;;;;;60.23;21.03;;;;;;;-2.51;100.00;99258.97;4208372;28;20278;-69
2022/11/24 02:16:10;;;;;;;67.77;21.03;;;;;;;-2.53;100.00;99252.16;4190044;28;20649;-72
2022/11/24 02:18:38;;;;;;;61.27;21.50;;;;;;;-2.55;100.00;99260.09;4198543;28;23761;-72
2022/11/24 02:21:05;;;;;;;61.37;20.80;;;;;;;-2.50;100.00;99257.22;4197560;28;25122;-69
2022/11/24 02:23:38;;;;;;;56.87;19.63;;;;;;;-2.42;100.00;99266.22;4199117;28;20324;-71
2022/11/24 02:26:10;;;;;;;54.57;18.87;;;;;;;-2.55;100.00;99254.88;4201046;28;20235;-69
2022/11/24 02:28:37;;;;;;;52.53;18.43;;;;;;;-2.58;100.00;99255.88;4208964;28;22628;-69
2022/11/24 02:31:04;;;;;;;55.80;19.73;;;;;;;-2.60;100.00;99262.09;4200124;28;20232;-70
2022/11/24 02:33:32;;;;;;;56.27;19.20;;;;;;;-2.54;100.00;99256.53;4208867;28;20506;-69
2022/11/24 02:35:59;;;;;;;53.00;19.83;;;;;;;-2.47;100.00;99251.81;4201342;28;21258;-69
2022/11/24 02:38:35;;;;;;;55.97;20.00;;;;;;;-2.56;100.00;99255.78;4201557;28;20236;-72
2022/11/24 02:41:05;;;;;;;64.70;20.50;;;;;;;-2.55;100.00;99255.72;4199290;28;20710;-66
2022/11/24 02:43:36;;;;;;;60.07;19.63;;;;;;;-2.47;100.00;99257.03;4198040;28;22455;-67
2022/11/24 02:46:03;;;;;;;57.40;18.93;;;;;;;-2.44;100.00;99264.66;4214757;28;20418;-68
2022/11/24 02:48:30;;;;;;;59.60;19.23;;;;;;;-2.43;100.00;99255.91;4202815;28;20240;-70
2022/11/24 02:50:56;;;;;;;49.10;17.80;;;;;;;-2.38;100.00;99256.47;4200700;28;20330;-69
2022/11/24 02:53:23;;;;;;;45.63;17.33;;;;;;;-2.44;100.00;99259.44;4202738;28;20436;-67
2022/11/24 02:55:49;;;;;;;48.70;16.77;;;;;;;-2.39;100.00;99249.56;4202694;28;20237;-68
2022/11/24 02:58:16;;;;;;;44.20;16.40;;;;;;;-2.34;100.00;99256.19;4201315;28;22510;-71
2022/11/24 03:00:43;;;;;;;47.37;16.70;;;;;;;-2.33;100.00;99252.66;4210526;28;20409;-69
2022/11/24 03:03:10;;;;;;;41.00;15.93;;;;;;;-2.40;100.00;99253.13;4203395;28;22896;-71
2022/11/24 03:05:37;;;;;;;43.93;15.40;;;;;;;-2.30;100.00;99259.44;4204003;28;21589;-68
2022/11/24 03:08:03;;;;;;;43.30;16.00;;;;;;;-2.25;100.00;99264.38;4202643;28;22031;-73
2022/11/24 03:10:30;;;;;;;42.00;14.43;;;;;;;-2.33;100.00;99259.63;4201759;28;21834;-70
2022/11/24 03:12:57;;;;;;;45.10;15.83;;;;;;;-2.44;100.00;99262.03;4205321;28;21054;-69
2022/11/24 03:15:24;;;;;;;40.53;15.37;;;;;;;-2.44;100.00;99262.03;4204078;28;20926;-68
2022/11/24 03:17:53;;;;;;;42.03;15.90;;;;;;;-2.41;100.00;99261.84;4202574;28;20880;-69
2022/11/24 03:20:20;;;;;;;44.87;15.60;;;;;;;-2.52;100.00;99254.69;4203823;28;21499;-71
2022/11/24 03:22:46;;;;;;;38.47;15.20;;;;;;;-2.48;100.00;99260.53;4201379;28;20237;-68
2022/11/24 03:25:13;;;;;;;39.33;15.53;;;;;;;-2.36;100.00;99260.66;4209089;28;21184;-71
2022/11/24 03:27:40;;;;;;;39.00;14.80;;;;;;;-2.37;100.00;99256.38;4194946;28;20984;-68
2022/11/24 03:30:08;;;;;;;44.47;15.93;;;;;;;-2.38;100.00;99261.69;4204551;28;20472;-70
2022/11/24 03:32:34;;;;;;;38.23;14.93;;;;;;;-2.37;100.00;99253.75;4215690;28;20232;-71
2022/11/24 03:35:02;;;;;;;38.80;14.70;;;;;;;-2.40;100.00;99255.72;4205673;28;25306;-71
2022/11/24 03:37:29;;;;;;;43.37;15.60;;;;;;;-2.50;100.00;99255.44;4197570;28;20276;-69
2022/11/24 03:39:56;;;;;;;38.03;15.63;;;;;;;-2.44;100.00;99262.03;4230007;28;20347;-70
2022/11/24 03:42:23;;;;;;;40.40;15.00;;;;;;;-2.43;100.00;99264.56;4218513;28;20240;-71
2022/11/24 03:44:50;;;;;;;42.20;15.10;;;;;;;-2.53;100.00;99257.38;4232490;28;21228;-69
2022/11/24 03:47:17;;;;;;;37.67;15.03;;;;;;;-2.47;100.00;99267.44;4208091;28;20237;-71
2022/11/24 03:49:44;;;;;;;37.27;13.83;;;;;;;-2.57;100.00;99275.81;4222879;28;21217;-68
2022/11/24 03:52:11;;;;;;;34.53;14.03;;;;;;;-2.58;100.00;99271.50;4201530;28;20673;-69
2022/11/24 03:54:38;;;;;;;36.33;14.47;;;;;;;-2.56;100.00;99274.84;4201320;28;20295;-71
2022/11/24 03:57:04;;;;;;;36.53;13.07;;;;;;;-2.47;100.00;99275.25;4200859;28;20317;-71
2022/11/24 03:59:31;;;;;;;34.27;13.37;;;;;;;-2.56;100.00;99290.47;4189773;28;20228;-70
2022/11/24 04:01:58;;;;;;;36.40;13.97;;;;;;;-2.54;100.00;99279.97;4206593;28;20263;-71
2022/11/24 04:04:25;;;;;;;39.27;13.47;;;;;;;-2.50;100.00;99278.06;4203856;28;21824;-70
2022/11/24 04:06:52;;;;;;;35.63;13.17;;;;;;;-2.60;100.00;99275.13;4199653;28;20680;-67
2022/11/24 04:09:18;;;;;;;38.03;13.40;;;;;;;-2.61;100.00;99270.88;4187228;28;20229;-70
2022/11/24 04:14:30;;;;;;;30.83;11.70;;;;;;;-2.52;100.00;99285.13;4200398;28;20225;-68
2022/11/24 04:16:57;;;;;;;28.10;11.57;;;;;;;-2.51;100.00;99277.19;4200060;28;21233;-70
2022/11/24 04:19:24;;;;;;;34.37;12.27;;;;;;;-2.58;100.00;99278.47;4208606;28;25815;-71
2022/11/24 04:21:50;;;;;;;33.30;12.53;;;;;;;-2.57;100.00;99272.38;4208469;28;20532;-68
2022/11/24 04:24:17;;;;;;;32.67;12.13;;;;;;;-2.53;100.00;99267.78;4205312;28;22812;-69
2022/11/24 04:26:44;;;;;;;37.33;13.47;;;;;;;-2.64;100.00;99261.47;4198139;28;20331;-68
2022/11/24 04:29:10;;;;;;;34.13;13.07;;;;;;;-2.63;100.00;99278.75;4204936;28;20250;-70
2022/11/24 04:31:37;;;;;;;34.73;13.60;;;;;;;-2.55;100.00;99270.50;4206748;28;22889;-70
2022/11/24 04:34:04;;;;;;;34.80;12.87;;;;;;;-2.52;100.00;99282.50;4196361;28;20244;-70
2022/11/24 04:36:31;;;;;;;34.67;12.40;;;;;;;-2.50;100.00;99285.88;4202441;28;20618;-68
2022/11/24 04:38:57;;;;;;;35.77;13.13;;;;;;;-2.49;100.00;99288.34;4206827;28;20349;-71
2022/11/24 04:41:46;;;;;;;36.50;12.80;;;;;;;-2.51;100.00;99282.41;4229576;28;23585;-68
2022/11/24 04:44:12;;;;;;;32.37;12.47;;;;;;;-2.60;100.00;99288.16;4202998;28;20280;-69
2022/11/24 04:46:39;;;;;;;34.40;13.67;;;;;;;-2.56;100.00;99298.28;4214129;28;20863;-70
2022/11/24 04:49:10;;;;;;;33.23;12.33;;;;;;;-2.55;100.00;99302.59;4204623;28;20302;-67
2022/11/24 04:51:38;;;;;;;32.97;12.93;;;;;;;-2.43;100.00;99305.41;4206991;28;20229;-71
2022/11/24 04:54:06;;;;;;;31.27;12.20;;;;;;;-2.49;100.00;99310.97;4207646;28;20239;-70
2022/11/24 04:56:32;;;;;;;36.60;14.17;;;;;;;-2.38;100.00;99299.00;4193237;28;20232;-71
2022/11/24 04:59:00;;;;;;;34.67;14.50;;;;;;;-2.37;100.00;99295.44;4192328;28;23103;-71
2022/11/24 05:01:33;;;;;;;35.27;13.60;;;;;;;-2.41;100.00;99303.53;4201848;28;20798;-68
2022/11/24 05:04:00;;;;;;;36.10;13.73;;;;;;;-2.46;100.00;99310.78;4214571;28;20435;-70
2022/11/24 05:06:27;;;;;;;34.67;13.27;;;;;;;-2.52;100.00;99300.75;4202677;28;21248;-72
2022/11/24 05:08:54;;;;;;;38.07;15.07;;;;;;;-2.37;100.00;99292.00;4209458;28;20340;-71
2022/11/24 05:11:21;;;;;;;37.83;13.73;;;;;;;-2.42;100.00;99302.69;4201607;28;20239;-68
2022/11/24 05:13:47;;;;;;;36.17;13.47;;;;;;;-2.33;100.00;99306.53;4203904;28;20407;-69
2022/11/24 05:16:14;;;;;;;33.00;13.43;;;;;;;-2.22;100.00;99303.28;4201737;28;20282;-69
2022/11/24 05:18:41;;;;;;;39.17;14.53;;;;;;;-2.33;100.00;99307.34;4199558;28;20342;-71
2022/11/24 05:21:08;;;;;;;37.40;13.47;;;;;;;-2.33;100.00;99306.53;4200791;28;20327;-70
2022/11/24 05:23:34;;;;;;;38.73;15.80;;;;;;;-2.35;100.00;99318.81;4221004;28;20236;-69
2022/11/24 05:26:01;;;;;;;37.13;12.83;;;;;;;-2.34;100.00;99316.13;4209301;28;20720;-68
2022/11/24 05:28:28;;;;;;;37.43;13.53;;;;;;;-2.32;100.00;99318.63;4201850;28;22094;-68
2022/11/24 05:30:59;;;;;;;34.67;12.80;;;;;;;-2.27;100.00;99319.22;4205357;28;22635;-69
2022/11/24 05:33:28;;;;;;;35.93;14.07;;;;;;;-2.20;100.00;99317.91;4198431;28;20320;-71
2022/11/24 05:36:00;;;;;;;34.60;13.17;;;;;;;-2.21;100.00;99316.22;4202955;28;20368;-69
2022/11/24 05:38:26;;;;;;;35.63;14.43;;;;;;;-2.20;100.00;99315.31;4201408;28;20276;-71
2022/11/24 05:40:53;;;;;;;36.00;13.77;;;;;;;-2.15;100.00;99323.69;4203707;28;20235;-68
2022/11/24 05:43:20;;;;;;;33.80;13.23;;;;;;;-2.25;100.00;99322.53;4198159;28;20304;-70
2022/11/24 05:45:46;;;;;;;35.37;13.60;;;;;;;-2.24;100.00;99320.78;4200763;28;20229;-70
2022/11/24 05:48:14;;;;;;;38.57;14.13;;;;;;;-2.22;100.00;99334.56;4204901;28;20236;-68
2022/11/24 05:50:41;;;;;;;40.33;14.80;;;;;;;-2.16;100.00;99329.81;4208346;28;21183;-71
2022/11/24 05:53:10;;;;;;;34.83;13.87;;;;;;;-2.23;100.00;99328.50;4202961;28;20231;-70
2022/11/24 05:55:37;;;;;;;40.00;14.90;;;;;;;-2.26;100.00;99344.31;4201891;28;20259;-69
2022/11/24 05:58:06;;;;;;;39.13;15.17;;;;;;;-2.34;100.00;99342.16;4199342;28;20236;-71
2022/11/24 06:00:34;;;;;;;34.40;13.77;;;;;;;-2.23;100.00;99349.34;4202809;28;20240;-68
2022/11/24 06:03:01;;;;;;;36.93;13.53;;;;;;;-2.16;100.00;99344.59;4199464;28;20410;-70
2022/11/24 06:05:28;;;;;;;38.97;14.93;;;;;;;-2.14;100.00;99345.34;4206006;28;20279;-69
2022/11/24 06:07:54;;;;;;;37.73;13.87;;;;;;;-2.12;100.00;99348.72;4198282;28;20225;-68
2022/11/24 06:10:22;;;;;;;38.13;15.53;;;;;;;-2.08;100.00;99346.75;4207565;28;20233;-68
2022/11/24 06:12:49;;;;;;;35.43;13.87;;;;;;;-2.07;100.00;99344.06;4207174;28;20251;-68
2022/11/24 06:15:16;;;;;;;39.97;15.63;;;;;;;-2.23;100.00;99357.16;4215790;28;20263;-70
2022/11/24 06:17:43;;;;;;;38.50;14.80;;;;;;;-2.21;100.00;99357.91;4217233;28;20655;-70
2022/11/24 06:20:10;;;;;;;41.40;15.37;;;;;;;-2.16;100.00;99361.06;4235521;28;20402;-70
2022/11/24 06:22:37;;;;;;;43.30;15.63;;;;;;;-2.15;100.00;99356.72;4216621;28;20244;-69
2022/11/24 06:25:04;;;;;;;38.70;15.57;;;;;;;-2.10;100.00;99351.25;4208245;28;20236;-68
2022/11/24 06:27:31;;;;;;;41.03;15.00;;;;;;;-2.03;100.00;99358.59;4204872;28;20415;-71
2022/11/24 06:29:57;;;;;;;38.73;15.27;;;;;;;-2.09;100.00;99368.53;4203638;28;20319;-70
2022/11/24 06:32:24;;;;;;;38.90;15.80;;;;;;;-2.06;100.00;99360.53;4217315;28;20361;-68
2022/11/24 06:34:51;;;;;;;38.27;14.43;;;;;;;-2.05;100.00;99363.06;4209684;28;20407;-71
2022/11/24 06:37:17;;;;;;;38.93;14.47;;;;;;;-2.03;100.00;99355.97;4211478;28;20343;-68
2022/11/24 06:39:44;;;;;;;42.33;16.60;;;;;;;-2.18;100.00;99346.47;4270864;28;20244;-71
2022/11/24 06:42:11;;;;;;;44.77;16.67;;;;;;;-2.29;100.00;99362.75;4271551;28;20934;-71
2022/11/24 06:44:38;;;;;;;44.73;16.60;;;;;;;-2.19;100.00;99352.63;4250205;28;21283;-71
2022/11/24 06:47:07;;;;;;;44.20;16.40;;;;;;;-2.00;100.00;99360.16;4259741;28;23371;-72
2022/11/24 06:49:34;;;;;;;46.73;16.10;;;;;;;-1.97;100.00;99349.56;4261814;28;24034;-72
2022/11/24 06:52:01;;;;;;;43.97;16.17;;;;;;;-1.98;100.00;99358.31;4270199;28;21367;-72
2022/11/24 06:54:28;;;;;;;45.50;17.07;;;;;;;-2.03;100.00;99361.19;4283044;28;26465;-72
2022/11/24 06:56:56;;;;;;;39.67;16.73;;;;;;;-2.15;100.00;99369.75;4291830;28;20313;-70
2022/11/24 06:59:23;;;;;;;43.77;17.07;;;;;;;-2.20;100.00;99367.41;4241462;28;20249;-70
2022/11/24 07:01:50;;;;;;;46.43;16.83;;;;;;;-2.05;100.00;99364.81;4231682;28;22905;-71
2022/11/24 07:04:17;;;;;;;44.03;16.30;;;;;;;-2.00;100.00;99365.38;4213263;28;20325;-71
2022/11/24 07:06:43;;;;;;;41.93;15.97;;;;;;;-2.09;100.00;99371.16;4252094;28;20628;-72
2022/11/24 07:09:11;;;;;;;45.73;15.93;;;;;;;-2.01;100.00;99367.16;4221592;28;20359;-70
2022/11/24 07:11:38;;;;;;;42.40;16.83;;;;;;;-1.92;100.00;99368.34;4215431;28;20238;-70
2022/11/24 07:14:05;;;;;;;45.97;17.97;;;;;;;-1.99;100.00;99382.69;4218962;28;20239;-74
2022/11/24 07:16:32;;;;;;;43.10;17.17;;;;;;;-1.87;100.00;99378.50;4208930;28;21442;-68
2022/11/24 07:19:00;;;;;;;45.80;17.77;;;;;;;-1.88;100.00;99382.06;4210333;28;20288;-72
2022/11/24 07:21:27;;;;;;;48.97;17.97;;;;;;;-2.05;100.00;99383.06;4206116;28;20229;-70
2022/11/24 07:23:55;;;;;;;47.70;17.40;;;;;;;-2.05;100.00;99388.28;4223857;28;20233;-74
2022/11/24 07:26:23;;;;;;;43.27;16.70;;;;;;;-1.87;100.00;99387.19;4226588;28;20242;-72
2022/11/24 07:28:49;;;;;;;41.67;15.57;;;;;;;-2.00;100.00;99394.88;4235632;28;20228;-73
2022/11/24 07:31:23;;;;;;;42.43;16.10;;;;;;;-2.03;100.00;99396.84;4218384;28;20243;-66
2022/11/24 07:33:51;;;;;;;39.50;15.63;;;;;;;-2.10;100.00;99387.72;4242102;28;20326;-71
2022/11/24 07:36:18;;;;;;;36.97;14.87;;;;;;;-2.07;100.00;99388.38;4210932;28;20295;-69
2022/11/24 07:38:45;;;;;;;37.23;13.40;;;;;;;-2.13;100.00;99391.34;4218894;28;20366;-71
2022/11/24 07:41:13;;;;;;;37.10;13.77;;;;;;;-2.10;100.00;99390.34;4213361;28;22915;-68
2022/11/24 07:43:40;;;;;;;34.87;13.93;;;;;;;-2.13;100.00;99393.97;4228240;28;20424;-68
2022/11/24 07:46:10;;;;;;;35.13;13.43;;;;;;;-2.07;100.00;99390.13;4207803;28;20230;-76
2022/11/24 07:48:38;;;;;;;36.60;14.70;;;;;;;-1.92;100.00;99394.44;4217455;28;22356;-71
2022/11/24 07:51:05;;;;;;;37.57;14.40;;;;;;;-1.86;100.00;99388.03;4214887;28;20248;-70
2022/11/24 07:53:36;;;;;;;33.03;14.13;;;;;;;-1.85;100.00;99389.69;4218156;28;20227;-68
2022/11/24 07:56:05;;;;;;;36.87;13.87;;;;;;;-1.84;100.00;99392.22;4212905;28;20735;-70
2022/11/24 07:58:34;;;;;;;33.50;13.20;;;;;;;-1.92;100.00;99390.06;4217625;28;20248;-69
2022/11/24 08:01:17;;;;;;;33.43;12.77;;;;;;;-1.83;100.00;99391.28;4219100;28;26523;-67
2022/11/24 08:03:44;;;;;;;31.27;12.37;;;;;;;-1.81;100.00;99399.84;4213253;28;24323;-72
2022/11/24 08:06:12;;;;;;;30.07;12.03;;;;;;;-1.91;100.00;99403.94;4216758;28;20289;-73
2022/11/24 08:08:53;;;;;;;30.57;12.00;;;;;;;-1.85;100.00;99411.41;4221057;28;20240;-70
2022/11/24 08:11:20;;;;;;;26.57;11.53;;;;;;;-1.87;100.00;99407.19;4252001;28;20235;-72
2022/11/24 08:13:46;;;;;;;35.07;12.63;;;;;;;-1.95;100.00;99407.66;4221961;28;20429;-69
2022/11/24 08:16:16;;;;;;;29.87;12.10;;;;;;;-1.93;100.00;99405.81;4308597;28;20320;-71
2022/11/24 08:18:49;;;;;;;33.83;13.30;;;;;;;-1.97;100.00;99399.09;4230744;28;20244;-69
2022/11/24 08:21:16;;;;;;;32.77;13.13;;;;;;;-1.85;100.00;99406.19;4209323;28;20928;-71
2022/11/24 08:23:43;;;;;;;34.37;12.17;;;;;;;-1.83;100.00;99403.47;4204007;28;20237;-70
2022/11/24 08:26:16;;;;;;;31.73;12.50;;;;;;;-1.83;100.00;99403.47;4209289;28;20337;-72
2022/11/24 08:28:44;;;;;;;31.20;11.90;;;;;;;-1.86;100.00;99408.88;4227680;28;20228;-70
2022/11/24 08:31:14;;;;;;;33.20;12.37;;;;;;;-1.82;100.00;99403.41;4240823;28;21651;-71
2022/11/24 08:33:40;;;;;;;30.37;12.30;;;;;;;-1.77;100.00;99403.94;4238985;28;20683;-72
2022/11/24 08:36:09;;;;;;;29.90;12.87;;;;;;;-1.63;100.00;99404.91;4228600;28;20347;-72
2022/11/24 08:38:37;;;;;;;35.83;13.20;;;;;;;-1.69;100.00;99408.69;4223730;28;21731;-70
2022/11/24 08:41:05;;;;;;;31.00;12.10;;;;;;;-1.57;100.00;99409.72;4217433;28;20604;-68
2022/11/24 08:43:34;;;;;;;27.53;12.60;;;;;;;-1.51;100.00;99415.41;4210777;28;20310;-70
2022/11/24 08:46:02;;;;;;;34.67;13.73;;;;;;;-1.47;100.00;99417.84;4214811;28;22121;-67
2022/11/24 08:48:29;;;;;;;29.43;12.83;;;;;;;-1.44;100.00;99410.66;4217163;28;20295;-68
2022/11/24 08:50:56;;;;;;;27.87;11.33;;;;;;;-1.46;100.00;99409.91;4213603;28;22977;-66
2022/11/24 08:53:23;;;;;;;28.67;12.40;;;;;;;-1.54;100.00;99413.00;4208174;28;20232;-70
2022/11/24 08:55:50;;;;;;;26.07;11.73;;;;;;;-1.46;100.00;99417.75;4213806;28;20254;-69
2022/11/24 08:58:17;;;;;;;26.93;12.10;;;;;;;-1.53;100.00;99422.47;4219707;28;22098;-72
2022/11/24 09:00:43;;;;;;;29.10;12.03;;;;;;;-1.60;100.00;99407.31;4196919;28;20227;-69
2022/11/24 09:03:10;;;;;;;29.17;11.93;;;;;;;-1.42;100.00;99419.22;4239012;28;22244;-70
2022/11/24 09:05:37;;;;;;;31.93;11.37;;;;;;;-1.29;100.00;99425.38;4216403;28;20283;-70
2022/11/24 09:08:19;;;;;;;31.10;11.93;;;;;;;-1.19;100.00;99432.66;4218841;28;20232;-71
2022/11/24 09:10:46;;;;;;;27.63;12.40;;;;;;;-1.28;100.00;99415.78;4218191;28;20354;-72
2022/11/24 09:13:12;;;;;;;28.13;11.87;;;;;;;-1.29;100.00;99424.53;4226413;28;20330;-74
2022/11/24 09:15:39;;;;;;;27.00;11.73;;;;;;;-1.22;100.00;99433.66;4234833;28;20791;-69
2022/11/24 09:18:06;;;;;;;31.43;12.67;;;;;;;-1.24;100.00;99437.28;4250944;28;20592;-70
2022/11/24 09:20:34;;;;;;;32.00;12.10;;;;;;;-1.21;100.00;99437.94;4216900;28;20718;-69
2022/11/24 09:23:00;;;;;;;32.03;12.07;;;;;;;-1.25;100.00;99435.63;4224075;28;20256;-69
2022/11/24 09:25:27;;;;;;;30.23;12.77;;;;;;;-1.24;100.00;99437.28;4207280;28;21805;-72
2022/11/24 09:27:55;;;;;;;30.90;12.00;;;;;;;-1.26;100.00;99445.22;4210218;28;20224;-68
2022/11/24 09:30:22;;;;;;;28.87;12.33;;;;;;;-1.20;100.00;99444.00;4216508;28;20260;-70
2022/11/24 09:32:48;;;;;;;30.47;12.57;;;;;;;-1.14;100.00;99439.25;4225447;28;20240;-67
2022/11/24 09:35:15;;;;;;;26.43;11.77;;;;;;;-1.12;100.00;99447.00;4218170;28;20231;-68
2022/11/24 09:37:43;;;;;;;27.60;11.77;;;;;;;-1.10;100.00;99445.09;4210884;28;20674;-67
2022/11/24 09:40:13;;;;;;;26.23;11.57;;;;;;;-1.10;100.00;99450.31;4217823;28;20243;-66
2022/11/24 09:43:00;;;;;;;26.80;11.60;;;;;;;-1.25;100.00;99451.28;4194948;28;20316;-68
2022/11/24 09:45:53;;;;;;;29.67;12.40;;;;;;;-1.16;100.00;99456.78;4209833;28;20236;-71
2022/11/24 09:48:38;;;;;;;31.90;12.80;;;;;;;-1.27;100.00;99459.19;4216043;28;21879;-70
2022/11/24 09:51:09;;;;;;;32.17;13.70;;;;;;;-1.42;100.00;99460.97;4218695;28;20256;-70
2022/11/24 09:53:38;;;;;;;31.17;13.33;;;;;;;-1.37;100.00;99466.75;4207533;28;20649;-72
2022/11/24 09:56:13;;;;;;;30.60;13.40;;;;;;;-1.25;100.00;99462.56;4212346;28;20225;-68
2022/11/24 09:58:44;;;;;;;31.60;12.97;;;;;;;-1.23;100.00;99465.06;4208882;28;21249;-69
2022/11/24 10:01:19;;;;;;;33.23;14.00;;;;;;;-1.27;100.00;99467.03;4208416;28;21715;-67
2022/11/24 10:03:48;;;;;;;38.13;14.90;;;;;;;-1.31;100.00;99457.72;4221605;28;22486;-69
2022/11/24 10:06:26;;;;;;;34.17;14.00;;;;;;;-1.35;100.00;99457.06;4209765;28;20316;-70
2022/11/24 10:09:06;;;;;;;36.17;14.87;;;;;;;-1.45;100.00;99466.41;4211385;28;25500;-69
2022/11/24 10:12:02;;;;;;;31.83;13.10;;;;;;;-1.37;100.00;99453.72;4204261;28;20239;-69
2022/11/24 10:15:05;;;;;;;38.03;14.57;;;;;;;-1.32;100.00;99456.03;4219936;28;20633;-67
2022/11/24 10:17:55;;;;;;;36.20;14.67;;;;;;;-1.14;100.00;99459.28;4208856;28;20227;-68
2022/11/24 10:20:39;;;;;;;33.77;14.60;;;;;;;-1.01;100.00;99454.97;4222824;28;20782;-70
2022/11/24 10:23:41;;;;;;;36.47;14.83;;;;;;;-0.94;100.00;99460.66;4208709;28;21845;-67
2022/11/24 10:26:15;;;;;;;35.47;14.47;;;;;;;-1.05;100.00;99458.72;4223059;28;22560;-69
2022/11/24 10:28:52;;;;;;;37.03;14.53;;;;;;;-1.12;100.00;99447.00;4205486;28;20237;-70
2022/11/24 10:31:40;;;;;;;37.23;14.50;;;;;;;-1.08;100.00;99441.47;4214333;28;20378;-71
2022/11/24 10:34:13;;;;;;;30.80;13.17;;;;;;;-0.95;100.00;99454.59;4214866;28;21029;-68
2022/11/24 10:36:57;;;;;;;32.10;13.73;;;;;;;-0.92;100.00;99443.94;4229949;28;20350;-66
2022/11/24 10:39:40;;;;;;;32.80;13.47;;;;;;;-0.86;100.00;99448.78;4229345;28;20411;-67
2022/11/24 10:42:14;;;;;;;37.17;16.03;;;;;;;-0.83;100.00;99449.53;4205549;28;20940;-67
2022/11/24 10:44:41;;;;;;;33.87;14.60;;;;;;;-0.71;100.00;99446.16;4214208;28;20243;-67
2022/11/24 10:47:19;;;;;;;33.47;14.83;;;;;;;-0.69;100.00;99452.13;4198566;28;22235;-66
2022/11/24 10:50:00;;;;;;;36.23;14.57;;;;;;;-0.75;100.00;99455.97;4213198;28;20310;-70
2022/11/24 10:52:34;;;;;;;36.80;15.37;;;;;;;-0.60;100.00;99448.09;4221586;28;20316;-69
2022/11/24 10:55:03;;;;;;;36.60;15.20;;;;;;;-0.54;100.00;99458.13;4200139;28;20239;-71
2022/11/24 10:57:37;;;;;;;37.80;15.27;;;;;;;-0.77;100.00;99451.75;4195237;28;21678;-67
2022/11/24 11:00:19;;;;;;;39.70;16.43;;;;;;;-0.78;100.00;99450.09;4209125;28;22530;-68
2022/11/24 11:02:49;;;;;;;38.73;16.40;;;;;;;-0.79;100.00;99453.66;4220203;28;20250;-66
2022/11/24 11:05:32;;;;;;;41.47;16.63;;;;;;;-0.92;100.00;99451.78;4203187;28;20348;-71
2022/11/24 11:08:13;;;;;;;32.33;14.33;;;;;;;-0.71;100.00;99454.81;4198618;28;21517;-53
2022/11/24 11:10:43;;;;;;;35.73;14.80;;;;;;;-0.49;100.00;99445.63;4198594;28;23729;-47
2022/11/24 11:13:26;;;;;;;37.00;15.90;;;;;;;-0.39;100.00;99453.69;4206771;28;20290;-67
2022/11/24 11:15:54;;;;;;;32.60;14.43;;;;;;;-0.56;100.00;99455.63;4208243;28;21149;-66
2022/11/24 11:18:26;;;;;;;37.60;14.10;;;;;;;-0.59;100.00;99458.41;4201594;28;21234;-69
2022/11/24 11:20:54;;;;;;;37.50;15.23;;;;;;;-0.71;100.00;99456.59;4212147;28;21053;-68
2022/11/24 11:23:27;;;;;;;33.30;13.97;;;;;;;-0.76;100.00;99459.50;4204243;28;20260;-66